Decoded Metar for LTAY (DENIZLI in TURKEY) (IATA:DNZ) | Meteo·Mobile Aviation Weather
aviador You're here:

LTAY Decoded Metar

DENIZLI in TURKEY
Report Time2018-12-18 16:50:00
UTC Time2018-12-18 17:18:28
Flight Rules vfr VFR
Wind230° at 03 kt
W.Decomp.*RWY 24: 2.9 kt HW 0.7 kt LCW
W.Rank230° ranks 11
Current wind is below 230° avg. (6.3)
Visibility9999 m
Phenomena:Light Shower Rain
Clouds:Scattered 030 Hf
Broken 090 Hf
Expected CloudBase > 400 ft AGL from Temp-Dew spread
Ceiling9,000 ft
Temp06°C (ISA -3)
Dew Point05°C (93% RH)
AAT3.8°C
QNH1012 hPa
Density Alt2,533 ft
Elevation2,785 ft
Report Wrong Elevation
Raw Report
METAR LTAY 181650Z 23003KT 9999 -SHRA SCT030 BKN090 06/05 Q1012=

Extra information for LTAY:More info

Metar Taf Metar & Taf Last 4 Metars F.Rules Stats Wind Profile Meteogram Temp Stats Airport Information Weather charts Add Link Nearby VenuesMetar ALERT Operation Metar Decoded Social comments